ANZ607 NZWN-NZQN
Flight info
| Callsign | ANZ607 |
|---|---|
| Flight time | N/A |
| Altitude | 36000 |
| Route | SABDA Y622 MESIX H159 CH Y266 ELRUV |
| Aircraft | A320/M-SDE3FGHIRWY/LB1 |
Departure
| Time | 2026-05-08 03:27 |
|---|---|
| Airport | Wellington International Airport (NZWN) |
Arrival
| Time | N/A |
|---|---|
| Airport | Queenstown Airport (NZQN) |
| Time | Latitude | Longitude | Altitude | Speed | Heading |
|---|---|---|---|---|---|
| 2026-05-08 03:01 | -41.32981 | 174.80973 | 26 ft | 0 kts | 158° |
| 2026-05-08 03:17 | -41.32968 | 174.80967 | 26 ft | 3 kts | 167° |
| 2026-05-08 03:17 | -41.32946 | 174.80964 | 26 ft | 3 kts | 194° |
| 2026-05-08 03:18 | -41.32928 | 174.80976 | 26 ft | 3 kts | 228° |
| 2026-05-08 03:18 | -41.32917 | 174.81000 | 26 ft | 3 kts | 260° |
| 2026-05-08 03:18 | -41.32915 | 174.81014 | 26 ft | 0 kts | 271° |
| 2026-05-08 03:22 | -41.32915 | 174.81003 | 26 ft | 2 kts | 272° |
| 2026-05-08 03:22 | -41.32914 | 174.80972 | 26 ft | 4 kts | 271° |
| 2026-05-08 03:23 | -41.32913 | 174.80924 | 26 ft | 6 kts | 272° |
| 2026-05-08 03:23 | -41.32937 | 174.80879 | 26 ft | 7 kts | 192° |
| 2026-05-08 03:23 | -41.32969 | 174.80835 | 26 ft | 7 kts | 253° |
| 2026-05-08 03:23 | -41.33011 | 174.80797 | 26 ft | 9 kts | 182° |
| 2026-05-08 03:24 | -41.33084 | 174.80791 | 26 ft | 12 kts | 180° |
| 2026-05-08 03:24 | -41.33174 | 174.80786 | 26 ft | 14 kts | 182° |
| 2026-05-08 03:24 | -41.33278 | 174.80778 | 26 ft | 16 kts | 180° |
| 2026-05-08 03:24 | -41.33398 | 174.80772 | 26 ft | 19 kts | 184° |
| 2026-05-08 03:25 | -41.33531 | 174.80754 | 26 ft | 19 kts | 205° |
| 2026-05-08 03:25 | -41.33577 | 174.80654 | 26 ft | 7 kts | 269° |
| 2026-05-08 03:25 | -41.33564 | 174.80633 | 26 ft | 4 kts | 338° |
| 2026-05-08 03:25 | -41.33543 | 174.80633 | 26 ft | 0 kts | 2° |
| 2026-05-08 03:26 | -41.33536 | 174.80633 | 26 ft | 8 kts | 3° |
| 2026-05-08 03:26 | -41.33259 | 174.80653 | 27 ft | 75 kts | 2° |
| 2026-05-08 03:26 | -41.32539 | 174.80704 | 45 ft | 127 kts | 4° |
| 2026-05-08 03:26 | -41.31651 | 174.80784 | 560 ft | 128 kts | 7° |
| 2026-05-08 03:27 | -41.30787 | 174.80844 | 1114 ft | 131 kts | 1° |
| 2026-05-08 03:27 | -41.29713 | 174.80704 | 419 ft | 207 kts | 352° |
| 2026-05-08 03:27 | -41.28356 | 174.80200 | 1817 ft | 155 kts | 337° |
| 2026-05-08 03:27 | -41.27616 | 174.79619 | 3691 ft | 111 kts | 335° |
| 2026-05-08 03:28 | -41.26965 | 174.79204 | 4480 ft | 88 kts | 333° |
| 2026-05-08 03:28 | -41.26543 | 174.78654 | 4802 ft | 102 kts | 322° |
| 2026-05-08 03:28 | -41.26476 | 174.77405 | 4971 ft | 179 kts | 261° |
| 2026-05-08 03:28 | -41.27415 | 174.75990 | 5528 ft | 234 kts | 224° |
| 2026-05-08 03:29 | -41.29009 | 174.74989 | 6057 ft | 271 kts | 208° |
| 2026-05-08 03:29 | -41.30934 | 174.74091 | 5774 ft | 320 kts | 208° |
| 2026-05-08 03:29 | -41.33053 | 174.73006 | 5165 ft | 328 kts | 209° |
| 2026-05-08 03:29 | -41.35168 | 174.71953 | 4063 ft | 331 kts | 208° |
| 2026-05-08 03:30 | -41.39110 | 174.69323 | 2576 ft | 297 kts | 216° |
| 2026-05-08 03:30 | -41.42726 | 174.68410 | 2184 ft | 256 kts | 171° |
| 2026-05-08 03:31 | -41.45768 | 174.70732 | 2734 ft | 248 kts | 115° |
| 2026-05-08 03:31 | -41.46934 | 174.74872 | 3358 ft | 241 kts | 88° |
| 2026-05-08 03:32 | -41.47101 | 174.77046 | 3583 ft | 238 kts | 76° |
| 2026-05-08 03:32 | -41.46891 | 174.78952 | 3885 ft | 167 kts | 33° |
| 2026-05-08 03:32 | -41.46074 | 174.79346 | 3889 ft | 117 kts | 346° |
| 2026-05-08 03:32 | -41.45205 | 174.79581 | 3176 ft | 147 kts | 17° |
| 2026-05-08 03:33 | -41.44317 | 174.80152 | 2749 ft | 133 kts | 7° |
| 2026-05-08 03:33 | -41.43478 | 174.80248 | 2609 ft | 108 kts | 354° |
| 2026-05-08 03:33 | -41.42744 | 174.80138 | 2226 ft | 109 kts | 353° |
| 2026-05-08 03:33 | -41.41970 | 174.80025 | 1807 ft | 113 kts | 355° |
| 2026-05-08 03:34 | -41.41203 | 174.79988 | 1497 ft | 109 kts | 5° |
| 2026-05-08 03:34 | -41.40490 | 174.80189 | 1281 ft | 105 kts | 7° |
| 2026-05-08 03:34 | -41.39701 | 174.80256 | 1313 ft | 120 kts | 358° |
| 2026-05-08 03:34 | -41.38873 | 174.80239 | 1356 ft | 114 kts | 6° |
| 2026-05-08 03:35 | -41.38125 | 174.80309 | 1201 ft | 109 kts | 2° |
| 2026-05-08 03:35 | -41.37373 | 174.80330 | 928 ft | 112 kts | 5° |
| 2026-05-08 03:35 | -41.36556 | 174.80355 | 865 ft | 110 kts | 5° |
| 2026-05-08 03:35 | -41.35764 | 174.80445 | 594 ft | 122 kts | 11° |
| 2026-05-08 03:36 | -41.34888 | 174.80520 | 343 ft | 129 kts | 3° |
| 2026-05-08 03:36 | -41.33992 | 174.80600 | 203 ft | 129 kts | 7° |
| 2026-05-08 03:36 | -41.33144 | 174.80657 | 36 ft | 111 kts | 6° |
| 2026-05-08 03:36 | -41.32499 | 174.80707 | 34 ft | 76 kts | 4° |
| 2026-05-08 03:37 | -41.32068 | 174.80738 | 48 ft | 51 kts | 3° |
| 2026-05-08 03:37 | -41.31901 | 174.80776 | 53 ft | 14 kts | 57° |
| 2026-05-08 03:37 | -41.31937 | 174.80864 | 53 ft | 13 kts | 173° |
| 2026-05-08 03:37 | -41.31970 | 174.80865 | 52 ft | 0 kts | 182° |